Time;durP1;ratioP1;P1;durP2;ratioP2;P2;SDS_P1;SDS_P2;PMS_P1;PMS_P2;Temp;Humidity;BMP_temperature;BMP_pressure;BME280_temperature;BME280_humidity;BME280_pressure;Samples;Min_cycle;Max_cycle;Signal;HPM_P1;HPM_P2
2022/08/17 00:01:59;;;;;;;1999.90;999.90;;;19.10;99.90;;;;;;5047020;28;20474;-69
2022/08/17 00:04:26;;;;;;;1999.90;999.90;;;19.00;99.90;;;;;;5049635;28;20477;-67
2022/08/17 00:06:53;;;;;;;1999.90;999.90;;;18.90;99.90;;;;;;5047824;28;20532;-70
2022/08/17 00:09:19;;;;;;;1999.90;999.90;;;18.70;99.90;;;;;;5049160;28;20468;-69
2022/08/17 00:11:49;;;;;;;1999.90;999.90;;;18.70;99.90;;;;;;5047393;28;20541;-69
2022/08/17 00:14:19;;;;;;;1999.90;999.90;;;18.70;99.90;;;;;;5046957;28;20472;-69
2022/08/17 00:16:48;;;;;;;1999.90;999.90;;;18.70;99.90;;;;;;5047833;28;20576;-69
2022/08/17 00:19:18;;;;;;;1999.90;999.90;;;18.70;99.90;;;;;;5048669;28;20473;-69
2022/08/17 00:21:46;;;;;;;1999.90;999.90;;;18.70;99.90;;;;;;5047976;28;20454;-69
2022/08/17 00:24:14;;;;;;;1999.90;999.90;;;18.70;99.90;;;;;;5050298;28;20470;-69
2022/08/17 00:26:41;;;;;;;1999.90;999.90;;;18.50;99.90;;;;;;5051533;28;20486;-70
2022/08/17 00:29:09;;;;;;;1999.90;999.90;;;18.40;99.90;;;;;;5049445;28;20464;-68
2022/08/17 00:31:36;;;;;;;1999.90;999.90;;;18.40;99.90;;;;;;5052419;28;20461;-69
2022/08/17 00:34:05;;;;;;;1999.90;999.90;;;18.40;99.90;;;;;;5051969;28;20466;-67
2022/08/17 00:36:32;;;;;;;1999.90;999.90;;;18.50;99.90;;;;;;5052090;28;20509;-67
2022/08/17 00:38:59;;;;;;;1999.90;999.90;;;18.70;99.90;;;;;;5051623;28;20503;-69
2022/08/17 00:41:28;;;;;;;1999.90;999.90;;;18.70;99.90;;;;;;5052364;28;20462;-69
2022/08/17 00:43:56;;;;;;;1999.90;999.90;;;18.80;99.90;;;;;;5050453;28;20520;-69
2022/08/17 00:46:28;;;;;;;1999.90;999.90;;;18.80;99.90;;;;;;5051503;28;20500;-68
2022/08/17 00:48:54;;;;;;;1999.90;999.90;;;18.90;99.90;;;;;;5051503;28;20458;-68
2022/08/17 00:51:31;;;;;;;1999.90;999.90;;;19.00;99.90;;;;;;5051187;28;20520;-68
2022/08/17 00:54:02;;;;;;;1999.90;999.90;;;19.00;99.90;;;;;;5051372;28;20462;-68
2022/08/17 00:56:31;;;;;;;1999.90;999.90;;;19.00;99.90;;;;;;5051609;28;20486;-69
2022/08/17 00:58:58;;;;;;;1999.90;999.90;;;19.00;99.90;;;;;;5049472;28;20463;-68
2022/08/17 01:01:26;;;;;;;1999.90;999.90;;;19.00;99.90;;;;;;5051180;28;20508;-68
2022/08/17 01:03:55;;;;;;;1999.90;999.90;;;19.00;99.90;;;;;;5049743;28;20516;-68
2022/08/17 01:06:23;;;;;;;1999.90;999.90;;;19.00;99.90;;;;;;5050054;28;20962;-68
2022/08/17 01:08:52;;;;;;;1999.90;999.90;;;19.00;99.90;;;;;;5050227;28;20458;-67
2022/08/17 01:11:19;;;;;;;1999.90;999.90;;;19.00;99.90;;;;;;5049076;28;20458;-69
2022/08/17 01:13:47;;;;;;;1999.90;999.90;;;18.80;99.90;;;;;;5048668;28;20831;-69
2022/08/17 01:16:17;;;;;;;1999.90;999.90;;;18.90;99.90;;;;;;5050556;28;20492;-68
2022/08/17 01:18:50;;;;;;;1999.90;999.90;;;18.80;99.90;;;;;;5050611;28;20508;-68
2022/08/17 01:21:24;;;;;;;1999.90;999.90;;;18.80;99.90;;;;;;5050810;28;20512;-68
2022/08/17 01:23:52;;;;;;;1999.90;999.90;;;18.80;99.90;;;;;;5050391;28;20878;-67
2022/08/17 01:26:19;;;;;;;1999.90;999.90;;;18.70;99.90;;;;;;5049832;28;21062;-68
2022/08/17 01:28:46;;;;;;;1999.90;999.90;;;18.70;99.90;;;;;;5048788;28;20957;-67
2022/08/17 01:31:14;;;;;;;1999.90;999.90;;;18.60;99.90;;;;;;5050260;28;20458;-69
2022/08/17 01:33:40;;;;;;;1999.90;999.90;;;18.60;99.90;;;;;;5051340;28;20515;-69
2022/08/17 01:36:08;;;;;;;1999.90;999.90;;;18.40;99.90;;;;;;5051403;28;20899;-70
2022/08/17 01:38:35;;;;;;;1999.90;999.90;;;18.20;99.90;;;;;;5050465;28;20458;-67
2022/08/17 01:41:08;;;;;;;1999.90;999.90;;;18.00;99.90;;;;;;5048629;28;20758;-67
2022/08/17 01:43:39;;;;;;;1999.90;999.90;;;18.10;99.90;;;;;;5050523;28;20462;-68
2022/08/17 01:46:06;;;;;;;1999.90;999.90;;;18.30;99.90;;;;;;5049291;28;21159;-69
2022/08/17 01:48:35;;;;;;;1999.90;999.90;;;18.30;99.90;;;;;;5050590;28;21019;-69
2022/08/17 01:51:03;;;;;;;1999.90;999.90;;;18.50;99.90;;;;;;5049334;28;20508;-69
2022/08/17 01:53:34;;;;;;;1999.90;999.90;;;18.50;99.90;;;;;;5050855;28;20458;-69
2022/08/17 01:56:07;;;;;;;1999.90;999.90;;;18.50;99.90;;;;;;5047079;28;20527;-69
2022/08/17 01:58:35;;;;;;;1999.90;999.90;;;18.50;99.90;;;;;;5049009;28;20454;-68
2022/08/17 02:01:04;;;;;;;1999.90;999.90;;;18.50;99.90;;;;;;5047046;28;20512;-68
2022/08/17 02:03:33;;;;;;;1999.90;999.90;;;18.60;99.90;;;;;;5048840;28;20507;-68
2022/08/17 02:06:00;;;;;;;1999.90;999.90;;;18.60;99.90;;;;;;5049166;28;20480;-69
2022/08/17 02:08:27;;;;;;;1999.90;999.90;;;18.50;99.90;;;;;;5044253;28;20482;-68
2022/08/17 02:10:55;;;;;;;1999.90;999.90;;;18.50;99.90;;;;;;5048767;28;20831;-69
2022/08/17 02:13:23;;;;;;;1999.90;999.90;;;18.50;99.90;;;;;;5049152;28;20470;-66
2022/08/17 02:15:49;;;;;;;1999.90;999.90;;;18.40;99.90;;;;;;5048746;28;20897;-68
2022/08/17 02:18:16;;;;;;;1999.90;999.90;;;18.20;99.90;;;;;;5049230;28;20462;-69
2022/08/17 02:20:43;;;;;;;1999.90;999.90;;;17.90;99.90;;;;;;5050283;28;20516;-69
2022/08/17 02:23:11;;;;;;;1999.90;999.90;;;17.90;99.90;;;;;;5049146;28;20546;-68
2022/08/17 02:25:39;;;;;;;1999.90;999.90;;;17.90;99.90;;;;;;5048561;28;20985;-66
2022/08/17 02:28:06;;;;;;;1999.90;999.90;;;17.90;99.90;;;;;;5045969;28;20486;-68
2022/08/17 02:30:34;;;;;;;1999.90;999.90;;;18.00;99.90;;;;;;5049752;28;20466;-68
2022/08/17 02:33:02;;;;;;;1999.90;999.90;;;18.00;99.90;;;;;;5048578;28;20959;-66
2022/08/17 02:35:29;;;;;;;1999.90;999.90;;;17.80;99.90;;;;;;5049291;28;20482;-69
2022/08/17 02:37:55;;;;;;;1999.90;999.90;;;17.90;99.90;;;;;;5046728;28;20499;-68
2022/08/17 02:40:23;;;;;;;1999.90;999.90;;;17.80;99.90;;;;;;5049217;28;20482;-67
2022/08/17 02:42:49;;;;;;;1999.90;999.90;;;17.70;99.90;;;;;;5047611;28;20954;-67
2022/08/17 02:45:19;;;;;;;1999.90;999.90;;;17.80;99.90;;;;;;5049920;28;20563;-67
2022/08/17 02:47:47;;;;;;;1999.90;999.90;;;17.80;99.90;;;;;;5051535;28;20482;-68
2022/08/17 02:50:16;;;;;;;1999.90;999.90;;;17.80;99.90;;;;;;5050428;28;20466;-68
2022/08/17 02:52:45;;;;;;;1999.90;999.90;;;17.80;99.90;;;;;;5048699;28;20462;-69
2022/08/17 02:55:15;;;;;;;1999.90;999.90;;;17.80;99.90;;;;;;5047574;28;20548;-69
2022/08/17 02:57:42;;;;;;;1999.90;999.90;;;17.80;99.90;;;;;;5049491;28;20454;-68
2022/08/17 03:00:12;;;;;;;1999.90;999.90;;;17.80;99.90;;;;;;5047719;28;20497;-68
2022/08/17 03:02:39;;;;;;;1999.90;999.90;;;17.90;99.90;;;;;;5048454;28;20477;-69
2022/08/17 03:05:09;;;;;;;1999.90;999.90;;;17.90;99.90;;;;;;5047351;28;20482;-70
2022/08/17 03:07:37;;;;;;;1999.90;999.90;;;17.80;99.90;;;;;;5044361;28;20536;-69
2022/08/17 03:10:04;;;;;;;1999.90;999.90;;;17.90;99.90;;;;;;5048152;28;20966;-69
2022/08/17 03:12:33;;;;;;;1999.90;999.90;;;17.80;99.90;;;;;;5044033;28;20458;-70
2022/08/17 03:15:03;;;;;;;1999.90;999.90;;;17.70;99.90;;;;;;5045854;28;20532;-69
2022/08/17 03:17:29;;;;;;;1999.90;999.90;;;17.70;99.90;;;;;;5043867;28;20552;-69
2022/08/17 03:19:57;;;;;;;1999.90;999.90;;;17.70;99.90;;;;;;5048317;28;20949;-69
2022/08/17 03:22:26;;;;;;;1999.90;999.90;;;17.80;99.90;;;;;;5049271;28;20462;-68
2022/08/17 03:24:54;;;;;;;1999.90;999.90;;;17.80;99.90;;;;;;5047945;28;20536;-68
2022/08/17 03:27:21;;;;;;;1999.90;999.90;;;17.80;99.90;;;;;;5047363;28;20482;-68
2022/08/17 03:29:48;;;;;;;1999.90;999.90;;;17.80;99.90;;;;;;5048466;28;20458;-69
2022/08/17 03:32:16;;;;;;;1999.90;999.90;;;17.80;99.90;;;;;;5048574;28;20885;-69
2022/08/17 03:34:43;;;;;;;1999.90;999.90;;;17.80;99.90;;;;;;5048910;28;20455;-66
2022/08/17 03:37:09;;;;;;;1999.90;999.90;;;17.90;99.90;;;;;;5045366;28;20520;-67
2022/08/17 03:39:37;;;;;;;1999.90;999.90;;;17.90;99.90;;;;;;5047984;28;20462;-66
2022/08/17 03:42:09;;;;;;;1999.90;999.90;;;18.00;99.90;;;;;;5045730;28;20527;-68
2022/08/17 03:44:36;;;;;;;1999.90;999.90;;;18.00;99.90;;;;;;5041865;28;20875;-68
2022/08/17 03:58:00;;;;;;;1999.90;999.90;;;17.90;99.90;;;;;;5045726;28;20457;-68
2022/08/17 04:00:27;;;;;;;1999.90;999.90;;;18.00;99.90;;;;;;5051848;28;20950;-68
2022/08/17 04:02:54;;;;;;;1999.90;999.90;;;18.00;99.90;;;;;;5051758;28;20916;-70
2022/08/17 04:05:21;;;;;;;1999.90;999.90;;;17.90;99.90;;;;;;5052092;28;20486;-67
2022/08/17 04:07:47;;;;;;;1999.90;999.90;;;17.80;99.90;;;;;;5052513;28;20508;-69
2022/08/17 04:10:15;;;;;;;1999.90;999.90;;;17.80;99.90;;;;;;5051189;28;20462;-68
2022/08/17 04:12:45;;;;;;;1999.90;999.90;;;17.80;99.90;;;;;;5050295;28;20492;-68
2022/08/17 04:15:12;;;;;;;1999.90;999.90;;;17.80;99.90;;;;;;5050498;28;20543;-68
2022/08/17 04:17:39;;;;;;;1999.90;999.90;;;17.80;99.90;;;;;;5050755;28;20814;-72
2022/08/17 04:20:07;;;;;;;1999.90;999.90;;;17.70;99.90;;;;;;5051830;28;20947;-70
2022/08/17 04:22:33;;;;;;;1999.90;999.90;;;17.70;99.90;;;;;;5052457;28;20539;-70
2022/08/17 04:25:02;;;;;;;1999.90;999.90;;;17.70;99.90;;;;;;5050500;28;21067;-69
2022/08/17 04:27:30;;;;;;;1999.90;999.90;;;17.60;99.90;;;;;;5051070;28;20556;-68
2022/08/17 04:29:57;;;;;;;1999.90;999.90;;;17.60;99.90;;;;;;5051031;28;20474;-69
2022/08/17 04:32:24;;;;;;;1999.90;999.90;;;17.60;99.90;;;;;;5053081;28;20463;-70
2022/08/17 04:34:51;;;;;;;1999.90;999.90;;;17.70;99.90;;;;;;5051673;28;20477;-69
2022/08/17 04:37:18;;;;;;;1999.90;999.90;;;17.80;99.90;;;;;;5051414;28;20469;-66
2022/08/17 04:42:05;;;;;;;1999.90;999.90;;;17.90;99.90;;;;;;5051107;28;20515;-69
2022/08/17 04:42:32;;;;;;;1999.90;999.90;;;18.10;99.90;;;;;;5049901;28;20450;-68
2022/08/17 04:44:59;;;;;;;1999.90;999.90;;;18.20;99.90;;;;;;5049546;28;20513;-68
2022/08/17 04:47:25;;;;;;;1999.90;999.90;;;18.30;99.90;;;;;;5051238;28;20482;-68
2022/08/17 04:49:52;;;;;;;1999.90;999.90;;;18.40;99.90;;;;;;5051493;28;20466;-68
2022/08/17 04:52:19;;;;;;;1999.90;999.90;;;18.40;99.90;;;;;;5049766;28;20458;-68
2022/08/17 04:54:45;;;;;;;1999.90;999.90;;;18.40;99.90;;;;;;5051706;28;20453;-68
2022/08/17 04:57:12;;;;;;;1999.90;999.90;;;18.50;99.90;;;;;;5050731;28;20916;-68
2022/08/17 04:59:40;;;;;;;1999.90;999.90;;;18.60;99.90;;;;;;5053553;28;20504;-68
2022/08/17 05:02:06;;;;;;;1999.90;999.90;;;18.70;99.90;;;;;;5053657;28;20454;-68
2022/08/17 05:04:33;;;;;;;1999.90;999.90;;;18.80;99.90;;;;;;5053705;28;20442;-68
2022/08/17 05:07:00;;;;;;;1999.90;999.90;;;18.90;99.90;;;;;;5051655;28;20458;-68
2022/08/17 05:09:27;;;;;;;1999.90;999.90;;;19.00;99.90;;;;;;5050145;28;20907;-67
2022/08/17 05:11:54;;;;;;;1999.90;999.90;;;19.10;99.90;;;;;;5048552;28;20466;-70
2022/08/17 05:14:21;;;;;;;1999.90;999.90;;;19.20;99.90;;;;;;5049687;28;20500;-70
2022/08/17 05:16:49;;;;;;;1999.90;999.90;;;19.30;99.90;;;;;;5050465;28;20593;-67
2022/08/17 05:19:16;;;;;;;1999.90;999.90;;;19.40;99.90;;;;;;5049749;28;20459;-67
2022/08/17 05:21:43;;;;;;;1999.90;999.90;;;19.50;99.90;;;;;;5049814;28;20957;-68
2022/08/17 05:24:09;;;;;;;1999.90;999.90;;;19.60;99.90;;;;;;5049181;28;20545;-67
2022/08/17 05:26:36;;;;;;;1999.90;999.90;;;19.90;99.90;;;;;;5045576;28;20482;-69
2022/08/17 05:29:03;;;;;;;1999.90;999.90;;;20.00;99.90;;;;;;5049038;28;20539;-68
2022/08/17 05:31:30;;;;;;;1999.90;999.90;;;20.20;99.90;;;;;;5049704;28;20462;-67
2022/08/17 05:33:58;;;;;;;1999.90;999.90;;;20.30;99.90;;;;;;5051094;28;20454;-67
2022/08/17 05:36:25;;;;;;;1999.90;999.90;;;20.50;99.90;;;;;;5049097;28;20478;-67
2022/08/17 05:38:52;;;;;;;1999.90;999.90;;;20.60;99.90;;;;;;5050114;28;20970;-68
2022/08/17 05:41:18;;;;;;;1999.90;999.90;;;20.70;99.90;;;;;;5049209;28;20960;-68
2022/08/17 05:43:45;;;;;;;1999.90;999.90;;;20.70;99.90;;;;;;5049889;28;20462;-67
2022/08/17 05:46:18;;;;;;;1999.90;999.90;;;20.80;99.90;;;;;;5049860;28;20497;-67
2022/08/17 05:48:47;;;;;;;1999.90;999.90;;;20.90;99.90;;;;;;5045645;28;20539;-68
2022/08/17 05:51:31;;;;;;;1999.90;999.90;;;21.30;99.90;;;;;;5049654;28;20524;-69
2022/08/17 05:54:12;;;;;;;1999.90;999.90;;;21.30;99.90;;;;;;5048553;28;20450;-69
2022/08/17 05:56:58;;;;;;;1999.90;999.90;;;21.10;99.90;;;;;;5044113;28;20478;-68
2022/08/17 05:59:34;;;;;;;1999.90;999.90;;;21.10;99.90;;;;;;5049262;28;20458;-67
2022/08/17 06:02:10;;;;;;;1999.90;999.90;;;21.20;99.90;;;;;;5048575;28;20471;-68
2022/08/17 06:04:51;;;;;;;1999.90;999.90;;;21.40;99.90;;;;;;5050107;28;20519;-68
2022/08/17 06:07:25;;;;;;;1999.90;999.90;;;21.50;99.90;;;;;;5048332;28;20471;-68
2022/08/17 06:10:02;;;;;;;1999.90;999.90;;;21.40;99.90;;;;;;5050293;28;20505;-68
2022/08/17 06:12:39;;;;;;;1999.90;999.90;;;21.50;99.90;;;;;;5044662;28;21165;-70
2022/08/17 06:15:23;;;;;;;1999.90;999.90;;;21.70;99.90;;;;;;5049442;28;20492;-68
2022/08/17 06:17:54;;;;;;;1999.90;999.90;;;22.30;99.90;;;;;;5047507;28;20462;-67
2022/08/17 06:20:23;;;;;;;1999.90;999.90;;;22.70;99.90;;;;;;5047992;28;21195;-66
2022/08/17 06:22:56;;;;;;;1999.90;999.90;;;22.80;99.90;;;;;;5049607;28;20466;-67
2022/08/17 06:25:29;;;;;;;1999.90;999.90;;;23.20;99.90;;;;;;5049424;28;20912;-66
2022/08/17 06:28:01;;;;;;;1999.90;999.90;;;23.50;99.90;;;;;;5057662;28;20470;-66
2022/08/17 06:30:30;;;;;;;1999.90;999.90;;;23.70;99.90;;;;;;5044443;28;20513;-66
2022/08/17 06:33:04;;;;;;;1999.90;999.90;;;24.10;99.90;;;;;;5048672;28;20988;-65
2022/08/17 06:35:37;;;;;;;1999.90;999.90;;;24.30;99.90;;;;;;5047019;28;21303;-66
2022/08/17 06:38:10;;;;;;;1999.90;999.90;;;24.30;99.90;;;;;;5046970;28;20458;-66
2022/08/17 06:41:03;;;;;;;1999.90;999.90;;;24.10;99.90;;;;;;5048333;28;20567;-66
2022/08/17 06:43:55;;;;;;;1999.90;999.90;;;24.40;99.90;;;;;;5047881;28;20459;-67
2022/08/17 06:46:28;;;;;;;1999.90;999.90;;;24.40;99.90;;;;;;5048106;28;21036;-67
2022/08/17 06:49:11;;;;;;;1999.90;999.90;;;24.60;99.90;;;;;;5049326;28;20559;-66
2022/08/17 06:51:40;;;;;;;1999.90;999.90;;;24.80;99.90;;;;;;5043466;28;20469;-67
2022/08/17 06:54:15;;;;;;;1999.90;999.90;;;24.90;99.90;;;;;;5047399;28;20890;-66
2022/08/17 06:56:45;;;;;;;1999.90;999.90;;;25.20;99.90;;;;;;5042251;28;20486;-66
2022/08/17 06:59:19;;;;;;;1999.90;999.90;;;25.40;99.90;;;;;;5046971;28;20466;-68
2022/08/17 07:01:49;;;;;;;1999.90;999.90;;;25.70;99.90;;;;;;5043850;28;20462;-66
2022/08/17 07:04:20;;;;;;;1999.90;999.90;;;25.80;99.90;;;;;;5047023;28;20512;-66
2022/08/17 07:06:50;;;;;;;1999.90;999.90;;;25.90;99.90;;;;;;5042647;28;20528;-65
2022/08/17 07:09:24;;;;;;;1999.90;999.90;;;26.10;99.90;;;;;;5047581;28;20559;-67
2022/08/17 07:11:54;;;;;;;1999.90;999.90;;;26.20;99.90;;;;;;5038861;28;20467;-67
2022/08/17 07:14:35;;;;;;;1999.90;999.90;;;26.30;99.90;;;;;;5050871;28;20508;-67
2022/08/17 07:17:06;;;;;;;1999.90;999.90;;;26.60;99.90;;;;;;5050622;28;20450;-69
2022/08/17 07:19:35;;;;;;;1999.90;999.90;;;26.70;99.90;;;;;;5051283;28;20447;-69
2022/08/17 07:22:14;;;;;;;1999.90;999.90;;;26.80;99.90;;;;;;5051729;28;20504;-68
2022/08/17 07:24:49;;;;;;;1999.90;999.90;;;26.90;99.90;;;;;;5051501;28;20567;-68
2022/08/17 07:27:19;;;;;;;1999.90;999.90;;;27.00;99.90;;;;;;5051414;28;20886;-69
2022/08/17 07:29:49;;;;;;;1999.90;999.90;;;26.90;99.30;;;;;;5051497;28;20482;-68
2022/08/17 07:32:22;;;;;;;1999.90;999.90;;;27.00;98.80;;;;;;5051870;28;20511;-68
2022/08/17 07:35:15;;;;;;;1999.90;999.90;;;27.30;98.30;;;;;;5056961;28;20508;-68
2022/08/17 07:37:43;;;;;;;1999.90;999.90;;;27.30;98.00;;;;;;5057970;28;20500;-68
2022/08/17 07:40:20;;;;;;;1999.90;999.90;;;27.60;97.70;;;;;;5058250;28;20870;-70
2022/08/17 07:43:07;;;;;;;1999.90;999.90;;;27.70;97.90;;;;;;5058341;28;20434;-67
2022/08/17 07:48:23;;;;;;;1999.90;999.90;;;27.70;96.20;;;;;;5058191;28;20496;-68
2022/08/17 07:50:51;;;;;;;1999.90;999.90;;;27.70;95.80;;;;;;5056771;28;21222;-68
2022/08/17 07:53:22;;;;;;;1999.90;999.90;;;27.50;96.20;;;;;;5058072;28;20450;-68
2022/08/17 07:55:50;;;;;;;1999.90;999.90;;;27.50;95.80;;;;;;5057765;28;20466;-68
2022/08/17 07:58:19;;;;;;;1999.90;999.90;;;27.50;95.90;;;;;;5057678;28;20872;-67
2022/08/17 08:01:03;;;;;;;1999.90;999.90;;;27.80;95.80;;;;;;5057558;28;20442;-67
2022/08/17 08:03:32;;;;;;;1999.90;999.90;;;28.10;95.50;;;;;;5056348;28;20509;-69
2022/08/17 08:06:01;;;;;;;1999.90;999.90;;;28.20;94.90;;;;;;5055327;28;20572;-68
2022/08/17 08:08:33;;;;;;;1999.90;999.90;;;28.50;93.80;;;;;;5049997;28;20481;-68
2022/08/17 08:11:10;;;;;;;1999.90;999.90;;;28.60;93.30;;;;;;5057891;28;20453;-68
2022/08/17 08:13:41;;;;;;;1999.90;999.90;;;28.60;93.10;;;;;;5057884;28;20446;-68
2022/08/17 08:16:21;;;;;;;1999.90;999.90;;;28.80;92.80;;;;;;5057397;28;20556;-69
2022/08/17 08:18:50;;;;;;;1999.90;999.90;;;28.70;93.10;;;;;;5056850;28;20664;-69
2022/08/17 08:21:27;;;;;;;1999.90;999.90;;;28.60;92.50;;;;;;5057880;28;20449;-68
2022/08/17 08:24:00;;;;;;;1999.90;999.90;;;28.80;92.50;;;;;;5057669;28;20438;-70
2022/08/17 08:26:35;;;;;;;1999.90;999.90;;;28.60;92.40;;;;;;5057626;28;20477;-68
2022/08/17 08:29:09;;;;;;;1999.90;999.90;;;28.60;92.70;;;;;;5057856;28;20500;-68
2022/08/17 08:31:47;;;;;;;1999.90;999.90;;;28.30;92.80;;;;;;5057920;28;20860;-67
2022/08/17 08:34:22;;;;;;;1999.90;999.90;;;28.10;93.10;;;;;;5056655;28;20868;-68
2022/08/17 08:36:55;;;;;;;1999.90;999.90;;;28.40;93.60;;;;;;5057767;28;20549;-69
2022/08/17 08:39:28;;;;;;;1999.90;999.90;;;28.70;92.90;;;;;;5057619;28;20446;-68
2022/08/17 08:42:06;;;;;;;1999.90;999.90;;;29.00;92.60;;;;;;5057401;28;20484;-69
2022/08/17 08:44:42;;;;;;;1999.90;999.90;;;29.00;92.30;;;;;;5054204;28;20520;-68
2022/08/17 08:47:19;;;;;;;1999.90;999.90;;;29.30;91.90;;;;;;5053425;28;20537;-69
2022/08/17 08:50:02;;;;;;;1999.90;999.90;;;29.30;91.70;;;;;;5054302;28;20489;-68
2022/08/17 08:52:46;;;;;;;1999.90;999.90;;;29.30;92.10;;;;;;5054297;28;20450;-67
2022/08/17 08:55:20;;;;;;;1999.90;999.90;;;29.60;91.30;;;;;;5053977;28;20556;-66
2022/08/17 08:57:56;;;;;;;1999.90;999.90;;;29.90;91.10;;;;;;5053802;28;20944;-67
2022/08/17 09:00:26;;;;;;;1999.90;999.90;;;30.00;91.30;;;;;;5052815;28;20442;-66
2022/08/17 09:03:24;;;;;;;1999.90;999.90;;;30.40;90.80;;;;;;5053763;28;20446;-66
2022/08/17 09:06:02;;;;;;;1999.90;999.90;;;30.20;90.00;;;;;;5048202;28;20513;-65
2022/08/17 09:08:41;;;;;;;1999.90;999.90;;;30.60;90.10;;;;;;5045745;28;20500;-68
2022/08/17 09:11:13;;;;;;;1999.90;999.90;;;30.60;89.20;;;;;;5052040;28;20505;-67
2022/08/17 09:13:51;;;;;;;1999.90;999.90;;;30.60;90.00;;;;;;5052249;28;20466;-68
2022/08/17 09:16:22;;;;;;;1999.90;999.90;;;30.80;88.20;;;;;;5051798;28;20831;-67
2022/08/17 09:18:53;;;;;;;1999.90;999.90;;;30.90;86.90;;;;;;5049364;28;20512;-67
2022/08/17 09:21:26;;;;;;;1999.90;999.90;;;30.60;86.50;;;;;;5053422;28;20499;-68
2022/08/17 09:24:01;;;;;;;1999.90;999.90;;;30.40;86.80;;;;;;5052796;28;20804;-69
2022/08/17 09:26:33;;;;;;;1999.90;999.90;;;30.20;88.40;;;;;;5046284;28;20501;-67
2022/08/17 09:29:07;;;;;;;1999.90;999.90;;;30.20;89.40;;;;;;5049805;28;20482;-68
2022/08/17 09:31:38;;;;;;;1999.90;999.90;;;30.20;87.10;;;;;;5053114;28;20450;-67
2022/08/17 09:34:10;;;;;;;1999.90;999.90;;;30.00;87.50;;;;;;5052731;28;20520;-67
2022/08/17 09:36:45;;;;;;;1999.90;999.90;;;29.90;88.90;;;;;;5051009;28;20482;-66
2022/08/17 09:39:16;;;;;;;1999.90;999.90;;;30.10;88.80;;;;;;5049682;28;20929;-68
2022/08/17 09:41:50;;;;;;;1999.90;999.90;;;29.90;88.00;;;;;;5049243;28;20462;-67
2022/08/17 09:44:26;;;;;;;1999.90;999.90;;;30.10;87.80;;;;;;5050568;28;20492;-69
2022/08/17 09:46:58;;;;;;;1999.90;999.90;;;30.30;86.20;;;;;;5050539;28;20997;-68
2022/08/17 09:49:31;;;;;;;1999.90;999.90;;;30.40;85.60;;;;;;5051105;28;21091;-67
2022/08/17 09:52:05;;;;;;;1999.90;999.90;;;30.90;86.30;;;;;;5048548;28;20494;-66
2022/08/17 09:54:35;;;;;;;1999.90;999.90;;;31.10;82.30;;;;;;5045375;28;20946;-68
2022/08/17 09:57:09;;;;;;;1999.90;999.90;;;31.10;83.70;;;;;;5051228;28;20544;-67
2022/08/17 09:59:56;;;;;;;1999.90;999.90;;;31.20;83.00;;;;;;5051822;28;20446;-68
2022/08/17 10:02:42;;;;;;;1999.90;999.90;;;31.20;83.70;;;;;;5052318;28;20442;-68
2022/08/17 10:05:15;;;;;;;1999.90;999.90;;;31.20;83.10;;;;;;5052164;28;20978;-67
2022/08/17 10:07:47;;;;;;;1999.90;999.90;;;31.20;81.60;;;;;;5052451;28;20855;-67
2022/08/17 10:10:19;;;;;;;1999.90;999.90;;;31.00;82.20;;;;;;5052607;28;20470;-65
2022/08/17 10:12:51;;;;;;;1999.90;999.90;;;31.20;82.30;;;;;;5051361;28;20488;-67
2022/08/17 10:15:30;;;;;;;1999.90;999.90;;;31.20;80.40;;;;;;5051705;28;20586;-65
2022/08/17 10:18:10;;;;;;;1999.90;999.90;;;30.70;81.30;;;;;;5052423;28;20458;-66
2022/08/17 10:20:45;;;;;;;1999.90;999.90;;;30.70;81.40;;;;;;5052230;28;20434;-67
2022/08/17 10:26:14;;;;;;;1999.90;999.90;;;31.20;80.40;;;;;;5051023;28;20600;-69
2022/08/17 10:28:47;;;;;;;1999.90;999.90;;;31.40;80.10;;;;;;5051942;28;20525;-66
2022/08/17 10:31:26;;;;;;;1999.90;999.90;;;31.50;80.10;;;;;;5048371;28;20466;-66
2022/08/17 10:34:03;;;;;;;1999.90;999.90;;;31.70;79.50;;;;;;5048906;28;20525;-67
2022/08/17 10:36:45;;;;;;;1999.90;999.90;;;31.80;78.90;;;;;;5045840;28;20488;-69
2022/08/17 10:39:24;;;;;;;1999.90;999.90;;;32.10;78.10;;;;;;5049955;28;20446;-68
2022/08/17 10:41:55;;;;;;;1999.90;999.90;;;32.00;77.80;;;;;;5045469;28;20462;-67
2022/08/17 10:44:28;;;;;;;1999.90;999.90;;;31.80;78.00;;;;;;5044243;28;20841;-68
2022/08/17 10:47:06;;;;;;;1999.90;999.90;;;31.50;77.90;;;;;;5050383;28;20565;-67
2022/08/17 10:49:34;;;;;;;1999.90;999.90;;;31.70;78.30;;;;;;5044795;28;20478;-69
2022/08/17 10:52:03;;;;;;;1999.90;999.90;;;31.90;77.90;;;;;;5045825;28;20557;-69
2022/08/17 10:54:45;;;;;;;1999.90;999.90;;;32.00;77.60;;;;;;5048448;28;20544;-69
2022/08/17 10:57:36;;;;;;;1999.90;999.90;;;32.10;77.60;;;;;;5046384;28;20647;-67
2022/08/17 11:00:08;;;;;;;1999.90;999.90;;;31.70;77.10;;;;;;5043780;28;20458;-68
2022/08/17 11:02:51;;;;;;;1999.90;999.90;;;31.80;77.70;;;;;;5047216;28;20458;-69
2022/08/17 11:05:41;;;;;;;1999.90;999.90;;;31.80;77.20;;;;;;5046647;28;20494;-68
2022/08/17 11:08:43;;;;;;;1999.90;999.90;;;31.30;77.20;;;;;;5046800;28;20512;-67
2022/08/17 11:11:35;;;;;;;1999.90;999.90;;;31.10;77.70;;;;;;5044241;28;20580;-67
2022/08/17 11:14:23;;;;;;;1999.90;999.90;;;30.70;78.30;;;;;;5043469;28;20535;-66
2022/08/17 11:17:10;;;;;;;1999.90;999.90;;;30.50;80.20;;;;;;5046402;28;20474;-65
2022/08/17 11:20:12;;;;;;;1999.90;999.90;;;30.80;80.70;;;;;;5047364;28;20442;-66
2022/08/17 11:23:19;;;;;;;1999.90;999.90;;;30.50;80.10;;;;;;5033508;28;20515;-67
2022/08/17 11:25:50;;;;;;;1999.90;999.90;;;30.70;80.20;;;;;;5041253;28;20482;-67
2022/08/17 11:28:21;;;;;;;1999.90;999.90;;;30.90;79.50;;;;;;5046618;28;20969;-65
2022/08/17 11:30:52;;;;;;;1999.90;999.90;;;31.20;79.00;;;;;;5050229;28;20474;-67
2022/08/17 11:33:56;;;;;;;1999.90;999.90;;;31.50;77.40;;;;;;5046543;28;20470;-66
2022/08/17 11:36:36;;;;;;;1999.90;999.90;;;31.50;75.90;;;;;;5046502;28;20486;-67
2022/08/17 11:39:14;;;;;;;1999.90;999.90;;;31.20;76.70;;;;;;5047122;28;20465;-67
2022/08/17 11:41:48;;;;;;;1999.90;999.90;;;31.00;76.60;;;;;;5046023;28;20462;-68
2022/08/17 11:44:36;;;;;;;1999.90;999.90;;;30.80;76.00;;;;;;5046847;28;20481;-67
2022/08/17 11:53:52;;;;;;;1999.90;999.90;;;30.70;77.30;;;;;;5044588;28;20476;-66
2022/08/17 11:56:41;;;;;;;1999.90;999.90;;;31.00;77.90;;;;;;5037736;28;20474;-67
2022/08/17 11:59:54;;;;;;;1999.90;999.90;;;31.50;77.00;;;;;;5046571;28;20520;-66
2022/08/17 12:02:42;;;;;;;1999.90;999.90;;;31.80;75.00;;;;;;4965899;28;20513;-68
2022/08/17 12:05:35;;;;;;;1999.90;999.90;;;32.10;74.70;;;;;;5046245;28;20474;-69
2022/08/17 12:08:20;;;;;;;1999.90;999.90;;;32.20;74.50;;;;;;5047127;28;20488;-66
2022/08/17 12:11:00;;;;;;;1999.90;999.90;;;32.00;73.60;;;;;;5049027;28;20462;-67
2022/08/17 12:13:30;;;;;;;1999.90;999.90;;;31.90;74.20;;;;;;5042093;28;20443;-66
2022/08/17 12:15:57;;;;;;;1999.90;999.90;;;31.80;73.30;;;;;;5049425;28;20492;-68
2022/08/17 12:18:27;;;;;;;1999.90;999.90;;;32.00;72.80;;;;;;5049983;28;20974;-69
2022/08/17 12:21:14;;;;;;;1999.90;999.90;;;32.20;72.60;;;;;;5051837;28;20556;-69
2022/08/17 12:23:47;;;;;;;1999.90;999.90;;;32.30;71.50;;;;;;5047662;28;20458;-69
2022/08/17 12:26:18;;;;;;;1999.90;999.90;;;32.20;70.50;;;;;;5049797;28;20490;-69
2022/08/17 12:28:48;;;;;;;1999.90;999.90;;;32.00;70.70;;;;;;5053566;28;20446;-70
2022/08/17 12:31:19;;;;;;;1999.90;999.90;;;31.80;70.50;;;;;;5052381;28;20496;-69
2022/08/17 12:33:48;;;;;;;1999.90;999.90;;;31.70;70.70;;;;;;5053375;28;20441;-69
2022/08/17 12:36:18;;;;;;;1999.90;999.90;;;31.80;70.30;;;;;;5050639;28;20527;-67
2022/08/17 12:38:51;;;;;;;1999.90;999.90;;;31.90;69.90;;;;;;5051265;28;20532;-68
2022/08/17 12:41:32;;;;;;;1999.90;999.90;;;32.00;69.40;;;;;;5050114;28;20462;-67
2022/08/17 12:44:02;;;;;;;1999.90;999.90;;;32.10;68.10;;;;;;5052258;28;20458;-67
2022/08/17 12:46:33;;;;;;;1999.90;999.90;;;32.30;68.40;;;;;;5049248;28;20501;-68
2022/08/17 12:49:22;;;;;;;1999.90;999.90;;;32.30;68.40;;;;;;5050998;28;21035;-67